createdAt,value
2023-05-09T00:00:43.826Z,39.44
2023-05-09T00:01:43.885Z,39.49
2023-05-09T00:02:43.874Z,39.46
2023-05-09T00:03:43.837Z,39.46
2023-05-09T00:04:43.920Z,39.44
2023-05-09T00:05:43.838Z,39.40
2023-05-09T00:06:43.852Z,39.48
2023-05-09T00:07:43.852Z,39.44
2023-05-09T00:08:43.860Z,39.41
2023-05-09T00:09:43.868Z,39.46
2023-05-09T00:10:43.854Z,39.44
2023-05-09T00:11:43.933Z,39.44
2023-05-09T00:12:43.869Z,39.48
2023-05-09T00:13:43.806Z,39.44
2023-05-09T00:14:43.793Z,39.43
2023-05-09T00:15:43.778Z,39.48
2023-05-09T00:16:43.794Z,39.50
2023-05-09T00:17:43.812Z,39.46
2023-05-09T00:18:43.754Z,39.43
2023-05-09T00:19:43.713Z,39.41
2023-05-09T00:20:43.715Z,39.45
2023-05-09T00:21:43.700Z,39.46
2023-05-09T00:22:43.685Z,39.38
2023-05-09T00:23:43.681Z,39.45
2023-05-09T00:24:43.651Z,39.45
2023-05-09T00:25:43.650Z,39.43
2023-05-09T00:26:43.643Z,39.43
2023-05-09T00:27:43.701Z,39.44
2023-05-09T00:28:43.621Z,39.47
2023-05-09T00:29:43.606Z,39.40
2023-05-09T00:30:43.609Z,39.42
2023-05-09T00:31:43.587Z,39.47
2023-05-09T00:32:43.593Z,39.47
2023-05-09T00:33:43.524Z,39.42
2023-05-09T00:34:43.515Z,39.44
2023-05-09T00:35:43.507Z,39.44
2023-05-09T00:36:43.535Z,39.47
2023-05-09T00:37:43.497Z,39.40
2023-05-09T00:38:43.510Z,39.42
2023-05-09T00:39:43.467Z,39.44
2023-05-09T00:40:43.472Z,39.42
2023-05-09T00:41:43.426Z,39.45
2023-05-09T00:42:43.433Z,39.43
2023-05-09T00:43:43.491Z,39.42
2023-05-09T00:44:43.382Z,39.44
2023-05-09T00:45:43.400Z,39.41
2023-05-09T00:46:43.370Z,39.41
2023-05-09T00:47:43.349Z,39.44
2023-05-09T00:48:43.330Z,39.42
2023-05-09T00:49:43.301Z,39.45
2023-05-09T00:50:43.274Z,39.38
2023-05-09T00:51:43.248Z,39.41
2023-05-09T00:52:43.237Z,39.44
2023-05-09T00:53:43.242Z,39.45
2023-05-09T00:54:43.219Z,39.42
2023-05-09T00:55:43.198Z,39.42
2023-05-09T00:56:43.194Z,39.45
2023-05-09T00:57:43.181Z,39.45
2023-05-09T00:58:43.175Z,39.45
2023-05-09T00:59:43.264Z,39.41
2023-05-09T01:00:43.201Z,39.45
2023-05-09T01:01:43.215Z,39.41
2023-05-09T01:02:43.291Z,39.41
2023-05-09T01:03:43.354Z,39.42
2023-05-09T01:04:44.115Z,39.38
2023-05-09T01:05:43.129Z,39.41
2023-05-09T01:06:43.146Z,39.39
2023-05-09T01:07:43.100Z,39.41
2023-05-09T01:08:43.131Z,39.42
2023-05-09T01:09:43.104Z,39.43
2023-05-09T01:10:43.112Z,39.42
2023-05-09T01:11:43.076Z,39.38
2023-05-09T01:12:43.084Z,39.43
2023-05-09T01:13:43.032Z,39.36
2023-05-09T01:14:43.060Z,39.38
2023-05-09T01:15:43.106Z,39.43
2023-05-09T01:16:43.010Z,39.34
2023-05-09T01:17:43.004Z,39.32
2023-05-09T01:18:42.979Z,39.41
2023-05-09T01:19:42.944Z,39.40
2023-05-09T01:20:42.922Z,39.35
2023-05-09T01:21:42.901Z,39.37
2023-05-09T01:22:42.905Z,39.36
2023-05-09T01:23:42.880Z,39.35
2023-05-09T01:24:42.878Z,39.39
2023-05-09T01:25:42.852Z,39.34
2023-05-09T01:26:42.842Z,39.39
2023-05-09T01:27:42.825Z,39.39
2023-05-09T01:28:42.817Z,39.37
2023-05-09T01:29:42.814Z,39.38
2023-05-09T01:30:42.811Z,39.38
2023-05-09T01:31:42.899Z,39.38
2023-05-09T01:32:42.869Z,39.37
2023-05-09T01:33:42.762Z,39.37
2023-05-09T01:34:42.744Z,39.38
2023-05-09T01:35:42.739Z,39.38
2023-05-09T01:36:42.706Z,39.34
2023-05-09T01:37:42.723Z,39.37
2023-05-09T01:38:42.683Z,39.35
2023-05-09T01:39:42.697Z,39.42
2023-05-09T01:40:42.662Z,39.36
2023-05-09T01:41:42.672Z,39.38
2023-05-09T01:42:42.670Z,39.38
2023-05-09T01:43:42.722Z,39.37
2023-05-09T01:44:42.634Z,39.34
2023-05-09T01:45:42.616Z,39.38
2023-05-09T01:46:42.628Z,39.34
2023-05-09T01:47:42.710Z,39.35
2023-05-09T01:48:42.568Z,39.38
2023-05-09T01:49:42.557Z,39.32
2023-05-09T01:50:42.563Z,39.36
2023-05-09T01:51:43.956Z,39.38
2023-05-09T01:52:42.559Z,39.38
2023-05-09T01:53:42.537Z,39.39
2023-05-09T01:54:42.542Z,39.30
2023-05-09T01:55:42.531Z,39.33
2023-05-09T01:56:42.539Z,39.38
2023-05-09T01:57:42.522Z,39.35
2023-05-09T01:58:42.525Z,39.32
2023-05-09T01:59:42.495Z,39.38
2023-05-09T02:00:42.543Z,39.38
2023-05-09T02:01:42.489Z,39.39
2023-05-09T02:02:42.622Z,39.33
2023-05-09T02:03:42.575Z,39.35
2023-05-09T02:04:42.500Z,39.38
2023-05-09T02:05:42.476Z,39.35
2023-05-09T02:06:42.469Z,39.31
2023-05-09T02:07:42.446Z,39.32
2023-05-09T02:08:42.455Z,39.36
2023-05-09T02:09:42.426Z,39.35
2023-05-09T02:10:42.426Z,39.33
2023-05-09T02:11:42.420Z,39.33
2023-05-09T02:12:42.470Z,39.38
2023-05-09T02:13:42.396Z,39.35
2023-05-09T02:14:42.378Z,39.38
2023-05-09T02:15:42.373Z,39.36
2023-05-09T02:16:42.371Z,39.35
2023-05-09T02:17:42.462Z,39.36
2023-05-09T02:18:42.391Z,39.32
2023-05-09T02:19:42.535Z,39.35
2023-05-09T02:20:42.397Z,39.35
2023-05-09T02:21:42.424Z,39.35
2023-05-09T02:22:42.407Z,39.33
2023-05-09T02:23:42.418Z,39.27
2023-05-09T02:24:42.434Z,39.35
2023-05-09T02:25:42.449Z,39.28
2023-05-09T02:26:42.482Z,39.39
2023-05-09T02:27:42.509Z,39.28
2023-05-09T02:28:42.532Z,39.29
2023-05-09T02:29:42.560Z,39.29
2023-05-09T02:30:42.569Z,39.31
2023-05-09T02:31:42.605Z,39.35
2023-05-09T02:32:42.662Z,39.30
2023-05-09T02:33:42.647Z,39.33
2023-05-09T02:34:42.704Z,39.31
2023-05-09T02:35:42.772Z,39.31
2023-05-09T02:36:42.746Z,39.29
2023-05-09T02:37:42.751Z,39.35
2023-05-09T02:38:42.811Z,39.33
2023-05-09T02:39:42.763Z,39.31
2023-05-09T02:40:42.826Z,39.35
2023-05-09T02:41:42.828Z,39.29
2023-05-09T02:42:42.833Z,39.33
2023-05-09T02:43:42.841Z,39.31
2023-05-09T02:44:42.834Z,39.31
2023-05-09T02:45:42.911Z,39.32
2023-05-09T02:46:42.842Z,39.32
2023-05-09T02:47:42.872Z,39.32
2023-05-09T02:48:42.846Z,39.29
2023-05-09T02:49:42.858Z,39.31
2023-05-09T02:50:42.924Z,39.31
2023-05-09T02:51:42.972Z,39.33
2023-05-09T02:52:42.882Z,39.31
2023-05-09T02:53:42.912Z,39.28
2023-05-09T02:54:42.899Z,39.31
2023-05-09T02:55:42.926Z,39.32
2023-05-09T02:56:42.914Z,39.36
2023-05-09T02:57:42.941Z,39.31
2023-05-09T02:58:42.947Z,39.33
2023-05-09T02:59:42.937Z,39.31
2023-05-09T03:00:42.957Z,39.31
2023-05-09T03:01:42.969Z,39.31
2023-05-09T03:02:42.996Z,39.33
2023-05-09T03:03:43.038Z,39.33
2023-05-09T03:04:42.960Z,39.29
2023-05-09T03:05:42.987Z,39.29
2023-05-09T03:06:43.010Z,39.26
2023-05-09T03:07:43.067Z,39.31
2023-05-09T03:08:43.011Z,39.31
2023-05-09T03:09:42.991Z,39.25
2023-05-09T03:10:43.038Z,39.28
2023-05-09T03:11:43.019Z,39.28
2023-05-09T03:12:43.070Z,39.31
2023-05-09T03:13:43.046Z,39.28
2023-05-09T03:14:43.076Z,39.31
2023-05-09T03:15:43.089Z,39.31
2023-05-09T03:16:43.097Z,39.32
2023-05-09T03:17:43.150Z,39.29
2023-05-09T03:18:43.130Z,39.26
2023-05-09T03:19:43.123Z,39.31
2023-05-09T03:20:43.134Z,39.31
2023-05-09T03:21:43.134Z,39.26
2023-05-09T03:22:43.154Z,39.28
2023-05-09T03:23:43.246Z,39.24
2023-05-09T03:24:43.146Z,39.26
2023-05-09T03:25:43.155Z,39.31
2023-05-09T03:26:43.133Z,39.33
2023-05-09T03:27:43.176Z,39.31
2023-05-09T03:28:43.150Z,39.29
2023-05-09T03:29:43.175Z,39.28
2023-05-09T03:30:43.171Z,39.28
2023-05-09T03:31:43.290Z,39.32
2023-05-09T03:32:43.270Z,39.29
2023-05-09T03:33:43.206Z,39.29
2023-05-09T03:34:43.196Z,39.26
2023-05-09T03:35:43.201Z,39.25
2023-05-09T03:36:43.208Z,39.27
2023-05-09T03:37:43.207Z,39.29
2023-05-09T03:38:43.219Z,39.26
2023-05-09T03:39:43.299Z,39.29
2023-05-09T03:40:43.221Z,39.28
2023-05-09T03:41:43.209Z,39.29
2023-05-09T03:42:43.219Z,39.25
2023-05-09T03:43:43.210Z,39.26
2023-05-09T03:44:43.216Z,39.31
2023-05-09T03:45:43.211Z,39.26
2023-05-09T03:46:43.266Z,39.33
2023-05-09T03:47:43.206Z,39.26
2023-05-09T03:48:43.233Z,39.27
2023-05-09T03:49:43.202Z,39.29
2023-05-09T03:50:43.241Z,39.29
2023-05-09T03:51:43.207Z,39.26
2023-05-09T03:52:43.262Z,39.23
2023-05-09T03:53:43.259Z,39.25
2023-05-09T03:54:43.287Z,39.28
2023-05-09T03:55:43.366Z,39.26
2023-05-09T03:56:43.291Z,39.26
2023-05-09T03:57:43.282Z,39.29
2023-05-09T03:58:43.283Z,39.26
2023-05-09T03:59:43.322Z,39.27
2023-05-09T04:00:43.290Z,39.22
2023-05-09T04:01:43.305Z,39.26
2023-05-09T04:02:43.320Z,39.27
2023-05-09T04:03:43.453Z,39.27
2023-05-09T04:04:43.295Z,39.24
2023-05-09T04:05:43.305Z,39.29
2023-05-09T04:06:43.302Z,39.23
2023-05-09T04:07:43.318Z,39.26
2023-05-09T04:08:43.308Z,39.20
2023-05-09T04:09:43.319Z,39.24
2023-05-09T04:10:43.281Z,39.24
2023-05-09T04:11:43.398Z,39.23
2023-05-09T04:12:43.302Z,39.25
2023-05-09T04:13:43.329Z,39.22
2023-05-09T04:14:43.304Z,39.26
2023-05-09T04:15:43.295Z,39.24
2023-05-09T04:16:43.277Z,39.29
2023-05-09T04:17:43.353Z,39.26
2023-05-09T04:18:43.255Z,39.26
2023-05-09T04:19:43.269Z,39.23
2023-05-09T04:20:43.241Z,39.23
2023-05-09T04:21:43.236Z,39.24
2023-05-09T04:22:45.398Z,39.26
2023-05-09T04:23:43.189Z,39.23
2023-05-09T04:24:43.154Z,39.20
2023-05-09T04:25:43.101Z,39.26
2023-05-09T04:26:43.068Z,39.27
2023-05-09T04:27:43.109Z,39.27
2023-05-09T04:28:42.976Z,39.23
2023-05-09T04:29:42.936Z,39.23
2023-05-09T04:30:42.909Z,39.23
2023-05-09T04:31:42.998Z,39.26
2023-05-09T04:32:42.841Z,39.26
2023-05-09T04:33:42.773Z,39.24
2023-05-09T04:34:42.726Z,39.26
2023-05-09T04:35:42.668Z,39.22
2023-05-09T04:36:42.623Z,39.24
2023-05-09T04:37:42.575Z,39.24
2023-05-09T04:38:42.540Z,39.23
2023-05-09T04:39:42.484Z,39.26
2023-05-09T04:40:42.438Z,39.22
2023-05-09T04:41:43.393Z,39.20
2023-05-09T04:42:42.348Z,39.22
2023-05-09T04:43:42.413Z,39.22
2023-05-09T04:44:42.274Z,39.20
2023-05-09T04:45:42.224Z,39.21
2023-05-09T04:46:42.247Z,39.21
2023-05-09T04:47:42.189Z,39.23
2023-05-09T04:48:42.091Z,39.21
2023-05-09T04:49:42.090Z,39.17
2023-05-09T04:50:41.991Z,39.25
2023-05-09T04:51:41.955Z,39.17
2023-05-09T04:52:41.906Z,39.22
2023-05-09T04:53:41.867Z,39.17
2023-05-09T04:54:41.850Z,39.19
2023-05-09T04:55:41.820Z,39.21
2023-05-09T04:56:41.802Z,39.22
2023-05-09T04:57:41.799Z,39.22
2023-05-09T04:58:41.758Z,39.15
2023-05-09T04:59:41.826Z,39.19
2023-05-09T05:00:41.719Z,39.15
2023-05-09T05:01:41.750Z,39.19
2023-05-09T05:02:41.731Z,39.19
2023-05-09T05:03:41.701Z,39.15
2023-05-09T05:04:41.756Z,39.19
2023-05-09T05:05:41.817Z,39.18
2023-05-09T05:06:41.723Z,39.16
2023-05-09T05:07:41.698Z,39.20
2023-05-09T05:08:41.719Z,39.15
2023-05-09T05:09:41.699Z,39.15
2023-05-09T05:10:41.688Z,39.16
2023-05-09T05:11:47.494Z,39.15
2023-05-09T05:12:42.688Z,39.15
2023-05-09T05:13:41.606Z,39.11
2023-05-09T05:14:41.584Z,39.18
2023-05-09T05:15:41.616Z,39.15
2023-05-09T05:16:41.521Z,39.16
2023-05-09T05:17:41.514Z,39.16
2023-05-09T05:18:41.417Z,39.80
2023-05-09T05:19:41.365Z,39.25
2023-05-09T05:20:41.325Z,39.21
2023-05-09T05:21:41.285Z,39.40
2023-05-09T05:22:41.243Z,39.18
2023-05-09T05:23:41.185Z,39.20
2023-05-09T05:24:41.175Z,39.14
2023-05-09T05:25:41.143Z,39.75
2023-05-09T05:26:41.156Z,39.71
2023-05-09T05:27:41.153Z,39.55
2023-05-09T05:28:41.170Z,39.34
2023-05-09T05:29:41.169Z,39.32
2023-05-09T05:30:41.212Z,39.33
2023-05-09T05:31:41.331Z,39.43
2023-05-09T05:32:41.206Z,39.42
2023-05-09T05:33:41.219Z,39.52
2023-05-09T05:34:41.222Z,39.57
2023-05-09T05:35:41.261Z,39.49
2023-05-09T05:36:41.249Z,39.46
2023-05-09T05:37:41.275Z,39.45
2023-05-09T05:38:41.264Z,39.46
2023-05-09T05:39:41.287Z,39.45
2023-05-09T05:40:41.287Z,39.45
2023-05-09T05:41:41.305Z,39.46
2023-05-09T05:42:41.324Z,39.47
2023-05-09T05:43:41.324Z,39.43
2023-05-09T05:44:41.328Z,39.50
2023-05-09T05:45:41.374Z,39.45
2023-05-09T05:46:41.331Z,39.50
2023-05-09T05:47:41.430Z,39.50
2023-05-09T05:48:41.332Z,39.51
2023-05-09T05:49:42.230Z,39.50
2023-05-09T05:50:41.306Z,39.48
2023-05-09T05:51:41.315Z,39.51
2023-05-09T05:52:41.319Z,39.52
2023-05-09T05:53:41.305Z,39.49
2023-05-09T05:54:41.319Z,39.52
2023-05-09T05:55:41.306Z,39.52
2023-05-09T05:56:41.310Z,39.52
2023-05-09T05:57:41.311Z,39.49
2023-05-09T05:58:41.305Z,39.56
2023-05-09T05:59:41.305Z,39.56
2023-05-09T06:00:41.291Z,39.49
2023-05-09T06:01:41.457Z,39.52
2023-05-09T06:02:41.427Z,39.53
2023-05-09T06:03:41.512Z,39.52
2023-05-09T06:04:41.269Z,39.59
2023-05-09T06:05:41.261Z,39.54
2023-05-09T06:06:41.246Z,39.54
2023-05-09T06:07:41.223Z,39.52
2023-05-09T06:08:41.218Z,39.56
2023-05-09T06:09:41.227Z,39.52
2023-05-09T06:10:41.209Z,39.54
2023-05-09T06:11:41.224Z,39.53
2023-05-09T06:12:41.230Z,39.52
2023-05-09T06:13:41.210Z,39.53
2023-05-09T06:14:41.160Z,39.52
2023-05-09T06:15:41.189Z,39.49
2023-05-09T06:16:41.160Z,39.52
2023-05-09T06:17:41.135Z,39.48
2023-05-09T06:18:41.097Z,39.48
2023-05-09T06:19:41.164Z,39.45
2023-05-09T06:20:41.064Z,39.44
2023-05-09T06:21:41.126Z,39.40
2023-05-09T06:22:41.052Z,39.41
2023-05-09T06:23:51.003Z,39.40
2023-05-09T06:24:42.001Z,39.44
2023-05-09T06:25:40.956Z,39.47
2023-05-09T06:26:40.902Z,39.44
2023-05-09T06:27:40.883Z,39.40
2023-05-09T06:28:40.817Z,39.35
2023-05-09T06:29:40.775Z,39.42
2023-05-09T06:30:40.739Z,39.38
2023-05-09T06:31:40.740Z,39.35
2023-05-09T06:32:40.655Z,39.28
2023-05-09T06:33:40.607Z,39.30
2023-05-09T06:34:40.604Z,39.24
2023-05-09T06:35:40.740Z,39.30
2023-05-09T06:36:40.594Z,39.23
2023-05-09T06:37:40.606Z,39.18
2023-05-09T06:38:40.622Z,39.22
2023-05-09T06:39:40.609Z,39.16
2023-05-09T06:40:40.750Z,39.21
2023-05-09T06:41:40.644Z,39.14
2023-05-09T06:42:40.687Z,39.17
2023-05-09T06:43:40.695Z,39.20
2023-05-09T06:44:40.719Z,39.15
2023-05-09T06:45:40.742Z,39.14
2023-05-09T06:46:40.799Z,39.14
2023-05-09T06:47:40.804Z,39.22
2023-05-09T06:48:40.781Z,39.16
2023-05-09T06:49:40.790Z,39.14
2023-05-09T06:50:40.807Z,39.18
2023-05-09T06:51:40.907Z,39.18
2023-05-09T06:52:40.828Z,39.20
2023-05-09T06:53:40.853Z,39.15
2023-05-09T06:54:40.940Z,39.15
2023-05-09T06:55:40.880Z,39.09
2023-05-09T06:56:40.901Z,39.11
2023-05-09T06:57:40.953Z,39.13
2023-05-09T06:58:40.926Z,39.11
2023-05-09T06:59:40.980Z,39.14
2023-05-09T07:00:40.940Z,39.10
2023-05-09T07:01:41.111Z,39.12
2023-05-09T07:02:41.035Z,39.11
2023-05-09T07:03:40.992Z,39.06
2023-05-09T07:04:41.050Z,39.11
2023-05-09T07:05:41.016Z,39.10
2023-05-09T07:06:41.039Z,39.10
2023-05-09T07:07:41.142Z,39.11
2023-05-09T07:08:41.046Z,39.08
2023-05-09T07:09:41.055Z,39.14
2023-05-09T07:10:41.066Z,39.09
2023-05-09T07:11:41.082Z,39.04
2023-05-09T07:12:41.130Z,39.08
2023-05-09T07:13:41.126Z,39.01
2023-05-09T07:14:41.169Z,39.05
2023-05-09T07:15:42.968Z,39.07
2023-05-09T07:16:41.318Z,39.07
2023-05-09T07:17:41.229Z,39.15
2023-05-09T07:18:41.235Z,41.58
2023-05-09T07:19:41.240Z,41.12
2023-05-09T07:20:41.245Z,40.63
2023-05-09T07:21:41.241Z,41.78
2023-05-09T07:22:41.328Z,41.71
2023-05-09T07:23:41.362Z,41.90
2023-05-09T07:24:41.274Z,41.35
2023-05-09T07:25:41.268Z,41.24
2023-05-09T07:26:41.267Z,40.96
2023-05-09T07:27:41.318Z,41.02
2023-05-09T07:28:41.295Z,40.84
2023-05-09T07:29:41.328Z,41.18
2023-05-09T07:30:41.314Z,41.74
2023-05-09T07:31:41.361Z,42.03
2023-05-09T07:32:41.356Z,42.27
2023-05-09T07:33:41.358Z,42.25
2023-05-09T07:34:41.335Z,42.92
2023-05-09T07:35:41.318Z,42.64
2023-05-09T07:36:41.293Z,42.29
2023-05-09T07:37:42.283Z,42.03
2023-05-09T07:38:41.366Z,42.05
2023-05-09T07:39:41.458Z,41.90
2023-05-09T07:40:41.367Z,41.93
2023-05-09T07:41:41.393Z,41.80
2023-05-09T07:42:41.378Z,41.88
2023-05-09T07:43:41.385Z,41.98
2023-05-09T07:44:42.286Z,42.15
2023-05-09T07:45:41.452Z,42.59
2023-05-09T07:46:41.353Z,42.13
2023-05-09T07:47:41.368Z,42.67
2023-05-09T07:48:41.344Z,41.91
2023-05-09T07:49:41.321Z,42.07
2023-05-09T07:50:41.319Z,41.98
2023-05-09T07:51:41.304Z,42.06
2023-05-09T07:52:41.280Z,41.91
2023-05-09T07:53:41.221Z,42.07
2023-05-09T07:54:41.229Z,42.09
2023-05-09T07:55:41.260Z,42.01
2023-05-09T07:56:41.170Z,42.29
2023-05-09T07:57:41.813Z,42.15
2023-05-09T07:58:41.087Z,42.41
2023-05-09T07:59:41.117Z,42.35
2023-05-09T08:00:41.026Z,42.29
2023-05-09T08:01:40.979Z,42.24
2023-05-09T08:02:41.086Z,42.13
2023-05-09T08:03:40.941Z,42.11
2023-05-09T08:04:41.671Z,42.12
2023-05-09T08:05:40.846Z,42.25
2023-05-09T08:06:40.796Z,42.10
2023-05-09T08:07:40.764Z,42.17
2023-05-09T08:08:40.732Z,41.99
2023-05-09T08:09:40.708Z,42.45
2023-05-09T08:10:40.674Z,42.05
2023-05-09T08:11:41.382Z,42.01
2023-05-09T08:12:40.644Z,41.74
2023-05-09T08:13:40.576Z,41.91
2023-05-09T08:14:40.520Z,41.33
2023-05-09T08:15:40.590Z,41.42
2023-05-09T08:16:40.530Z,40.50
2023-05-09T08:17:40.539Z,40.68
2023-05-09T08:18:40.410Z,40.16
2023-05-09T08:19:40.395Z,39.79
2023-05-09T08:20:40.366Z,39.66
2023-05-09T08:21:40.472Z,40.12
2023-05-09T08:22:40.343Z,39.92
2023-05-09T08:23:40.470Z,39.36
2023-05-09T08:24:40.534Z,39.10
2023-05-09T08:25:40.261Z,39.00
2023-05-09T08:26:40.276Z,40.39
2023-05-09T08:27:40.325Z,40.75
2023-05-09T08:28:40.278Z,40.55
2023-05-09T08:29:40.215Z,40.73
2023-05-09T08:30:40.224Z,40.47
2023-05-09T08:31:40.189Z,40.47
2023-05-09T08:32:40.227Z,40.44
2023-05-09T08:33:41.970Z,40.37
2023-05-09T08:34:40.133Z,40.46
2023-05-09T08:35:40.084Z,40.34
2023-05-09T08:36:40.054Z,40.53
2023-05-09T08:37:40.006Z,40.56
2023-05-09T08:38:39.989Z,40.53
2023-05-09T08:39:39.953Z,40.64
2023-05-09T08:40:39.927Z,40.44
2023-05-09T08:41:39.878Z,40.62
2023-05-09T08:42:39.853Z,40.81
2023-05-09T08:43:39.892Z,41.03
2023-05-09T08:44:39.781Z,40.68
2023-05-09T08:45:39.755Z,40.66
2023-05-09T08:46:39.836Z,40.50
2023-05-09T08:47:39.760Z,40.39
2023-05-09T08:48:39.682Z,40.42
2023-05-09T08:49:39.653Z,40.18
2023-05-09T08:50:39.597Z,39.99
2023-05-09T08:51:39.572Z,40.39
2023-05-09T08:52:39.531Z,39.86
2023-05-09T08:53:39.523Z,39.76
2023-05-09T08:54:39.481Z,39.85
2023-05-09T08:55:39.473Z,39.95
2023-05-09T08:56:39.454Z,39.72
2023-05-09T08:57:39.421Z,39.81
2023-05-09T08:58:39.834Z,39.99
2023-05-09T08:59:39.466Z,40.40
2023-05-09T09:00:39.361Z,40.48
2023-05-09T09:01:39.330Z,40.16
2023-05-09T09:02:39.393Z,40.44
2023-05-09T09:03:39.302Z,39.96
2023-05-09T09:04:39.396Z,40.35
2023-05-09T09:05:41.322Z,40.23
2023-05-09T09:06:39.214Z,40.47
2023-05-09T09:07:39.149Z,40.45
2023-05-09T09:08:39.087Z,41.55
2023-05-09T09:09:39.057Z,41.55
2023-05-09T09:10:38.962Z,42.00
2023-05-09T09:11:39.077Z,41.40
2023-05-09T09:12:38.844Z,42.09
2023-05-09T09:13:38.776Z,41.27
2023-05-09T09:14:38.909Z,42.80
2023-05-09T09:15:38.720Z,41.85
2023-05-09T09:16:38.620Z,40.75
2023-05-09T09:17:39.408Z,39.44
2023-05-09T09:18:39.745Z,39.74
2023-05-09T09:19:38.499Z,39.89
2023-05-09T09:20:38.280Z,40.28
2023-05-09T09:21:38.233Z,39.76
2023-05-09T09:22:38.168Z,39.82
2023-05-09T09:23:38.109Z,39.65
2023-05-09T09:24:38.026Z,40.51
2023-05-09T09:25:37.971Z,39.39
2023-05-09T09:26:37.875Z,39.46
2023-05-09T09:27:38.356Z,39.69
2023-05-09T09:28:37.757Z,39.78
2023-05-09T09:29:37.708Z,40.26
2023-05-09T09:30:37.632Z,40.75
2023-05-09T09:31:37.740Z,40.32
2023-05-09T09:32:37.591Z,40.10
2023-05-09T09:33:37.441Z,40.07
2023-05-09T09:34:37.384Z,40.24
2023-05-09T09:35:37.313Z,40.23
2023-05-09T09:36:37.288Z,40.41
2023-05-09T09:37:37.277Z,40.06
2023-05-09T09:38:37.239Z,40.35
2023-05-09T09:39:37.238Z,40.25
2023-05-09T09:40:37.211Z,41.68
2023-05-09T09:41:37.179Z,40.82
2023-05-09T09:42:37.186Z,40.47
2023-05-09T09:43:37.138Z,40.54
2023-05-09T09:44:37.150Z,40.73
2023-05-09T09:45:37.144Z,40.47
2023-05-09T09:46:37.330Z,40.45
2023-05-09T09:47:37.174Z,40.42
2023-05-09T09:48:37.033Z,40.21
2023-05-09T09:49:37.052Z,40.16
2023-05-09T09:50:37.086Z,39.72
2023-05-09T09:51:37.021Z,39.51
2023-05-09T09:52:36.977Z,39.52
2023-05-09T09:53:36.975Z,39.57
2023-05-09T09:54:36.961Z,39.58
2023-05-09T09:55:36.924Z,39.33
2023-05-09T09:56:36.916Z,39.41
2023-05-09T09:57:36.891Z,39.69
2023-05-09T09:58:36.871Z,39.28
2023-05-09T09:59:36.850Z,39.35
2023-05-09T10:00:36.839Z,39.10
2023-05-09T10:01:36.872Z,39.39
2023-05-09T10:02:36.847Z,39.14
2023-05-09T10:03:36.883Z,39.04
2023-05-09T10:04:36.891Z,38.94
2023-05-09T10:05:36.729Z,38.82
2023-05-09T10:06:36.725Z,38.78
2023-05-09T10:07:36.708Z,38.38
2023-05-09T10:08:36.688Z,38.74
2023-05-09T10:09:36.672Z,38.40
2023-05-09T10:10:36.660Z,38.54
2023-05-09T10:11:36.640Z,38.59
2023-05-09T10:12:36.598Z,38.57
2023-05-09T10:13:36.602Z,38.60
2023-05-09T10:14:36.593Z,38.60
2023-05-09T10:15:49.317Z,38.56
2023-05-09T10:16:43.775Z,38.51
2023-05-09T10:17:37.650Z,38.45
2023-05-09T10:18:37.497Z,38.50
2023-05-09T10:19:36.434Z,38.54
2023-05-09T10:20:36.258Z,38.52
2023-05-09T10:21:36.787Z,38.55
2023-05-09T10:22:36.153Z,38.56
2023-05-09T10:23:36.088Z,38.56
2023-05-09T10:24:36.016Z,38.54
2023-05-09T10:25:35.963Z,38.57
2023-05-09T10:26:35.893Z,38.50
2023-05-09T10:27:35.854Z,38.44
2023-05-09T10:28:35.801Z,38.51
2023-05-09T10:29:35.721Z,38.48
2023-05-09T10:30:35.657Z,38.48
2023-05-09T10:31:35.621Z,38.55
2023-05-09T10:32:35.559Z,38.50
2023-05-09T10:33:35.481Z,38.46
2023-05-09T10:34:35.425Z,38.47
2023-05-09T10:35:35.385Z,38.53
2023-05-09T10:36:35.325Z,38.60
2023-05-09T10:37:35.283Z,38.54
2023-05-09T10:38:35.258Z,38.51
2023-05-09T10:39:35.228Z,38.54
2023-05-09T10:40:35.187Z,38.56
2023-05-09T10:41:35.157Z,38.66
2023-05-09T10:42:35.128Z,38.59
2023-05-09T10:43:36.695Z,38.66
2023-05-09T10:44:35.082Z,38.59
2023-05-09T10:45:35.037Z,38.62
2023-05-09T10:46:35.090Z,38.68
2023-05-09T10:47:35.008Z,38.68
2023-05-09T10:48:34.941Z,38.65
2023-05-09T10:49:36.354Z,38.70
2023-05-09T10:50:34.852Z,38.71
2023-05-09T10:51:34.893Z,38.70
2023-05-09T10:52:34.772Z,38.69
2023-05-09T10:53:34.736Z,38.70
2023-05-09T10:54:34.698Z,38.74
2023-05-09T10:55:34.720Z,38.69
2023-05-09T10:56:34.647Z,38.64
2023-05-09T10:57:34.582Z,38.68
2023-05-09T10:58:34.558Z,38.62
2023-05-09T10:59:34.525Z,38.67
2023-05-09T11:00:34.491Z,38.67
2023-05-09T11:01:34.478Z,38.71
2023-05-09T11:02:34.429Z,38.64
2023-05-09T11:03:34.445Z,38.68
2023-05-09T11:04:34.362Z,38.66
2023-05-09T11:05:34.292Z,38.71
2023-05-09T11:06:34.275Z,38.70
2023-05-09T11:07:34.308Z,38.70
2023-05-09T11:08:34.206Z,38.67
2023-05-09T11:09:34.158Z,38.73
2023-05-09T11:10:34.119Z,38.76
2023-05-09T11:11:34.057Z,38.71
2023-05-09T11:12:34.021Z,38.72
2023-05-09T11:13:34.032Z,38.77
2023-05-09T11:14:33.962Z,38.79
2023-05-09T11:15:33.911Z,38.76
2023-05-09T11:16:33.992Z,38.78
2023-05-09T11:17:33.878Z,38.72
2023-05-09T11:18:33.842Z,38.75
2023-05-09T11:19:33.803Z,38.76
2023-05-09T11:20:33.770Z,38.81
2023-05-09T11:21:33.745Z,38.76
2023-05-09T11:22:33.707Z,38.76
2023-05-09T11:23:33.788Z,38.75
2023-05-09T11:24:33.659Z,38.79
2023-05-09T11:25:33.619Z,38.72
2023-05-09T11:26:33.628Z,38.73
2023-05-09T11:27:33.565Z,38.76
2023-05-09T11:28:33.537Z,38.72
2023-05-09T11:29:33.546Z,38.73
2023-05-09T11:30:33.434Z,38.75
2023-05-09T11:31:33.499Z,38.75
2023-05-09T11:32:33.365Z,38.76
2023-05-09T11:33:33.371Z,38.76
2023-05-09T11:34:33.896Z,38.69
2023-05-09T11:35:33.279Z,38.75
2023-05-09T11:36:33.243Z,38.77
2023-05-09T11:37:33.207Z,38.81
2023-05-09T11:38:33.149Z,38.74
2023-05-09T11:39:33.238Z,38.76
2023-05-09T11:40:33.094Z,38.76
2023-05-09T11:41:33.062Z,38.78
2023-05-09T11:42:33.014Z,38.76
2023-05-09T11:43:33.824Z,38.81
2023-05-09T11:44:32.941Z,38.82
2023-05-09T11:45:33.208Z,38.78
2023-05-09T11:46:33.427Z,38.78
2023-05-09T11:47:32.927Z,38.76
2023-05-09T11:48:32.825Z,38.77
2023-05-09T11:49:32.862Z,38.81
2023-05-09T11:50:32.771Z,38.79
2023-05-09T11:51:32.760Z,38.78
2023-05-09T11:52:32.711Z,38.84
2023-05-09T11:53:32.706Z,38.79
2023-05-09T11:54:32.667Z,38.81
2023-05-09T11:55:32.793Z,38.81
2023-05-09T11:56:32.637Z,38.81
2023-05-09T11:57:32.649Z,38.78
2023-05-09T11:58:32.575Z,38.82
2023-05-09T11:59:32.568Z,38.76
2023-05-09T12:00:32.521Z,38.80
2023-05-09T12:01:32.512Z,38.81
2023-05-09T12:02:32.519Z,38.76
2023-05-09T12:03:32.546Z,38.83
2023-05-09T12:04:32.490Z,38.79
2023-05-09T12:05:32.422Z,38.78
2023-05-09T12:06:32.368Z,38.80
2023-05-09T12:07:33.826Z,38.82
2023-05-09T12:08:32.368Z,38.76
2023-05-09T12:09:32.314Z,38.72
2023-05-09T12:10:32.285Z,38.80
2023-05-09T12:11:32.514Z,38.77
2023-05-09T12:12:32.196Z,38.80
2023-05-09T12:13:33.846Z,38.79
2023-05-09T12:14:32.118Z,38.77
2023-05-09T12:15:32.060Z,38.81
2023-05-09T12:16:32.049Z,38.82
2023-05-09T12:17:31.985Z,38.78
2023-05-09T12:18:31.918Z,38.84
2023-05-09T12:19:31.847Z,38.81
2023-05-09T12:20:31.794Z,38.78
2023-05-09T12:21:31.751Z,38.77
2023-05-09T12:22:31.705Z,38.75
2023-05-09T12:23:31.663Z,38.73
2023-05-09T12:24:31.606Z,38.77
2023-05-09T12:25:31.573Z,38.70
2023-05-09T12:26:31.494Z,38.70
2023-05-09T12:27:31.556Z,38.71
2023-05-09T12:28:31.410Z,38.70
2023-05-09T12:29:31.385Z,38.73
2023-05-09T12:30:31.320Z,38.73
2023-05-09T12:31:31.344Z,38.64
2023-05-09T12:32:31.242Z,38.71
2023-05-09T12:33:31.231Z,38.71
2023-05-09T12:34:31.213Z,38.75
2023-05-09T12:35:31.197Z,38.74
2023-05-09T12:36:31.160Z,38.61
2023-05-09T12:37:31.142Z,38.68
2023-05-09T12:38:31.103Z,38.63
2023-05-09T12:39:31.081Z,38.64
2023-05-09T12:40:31.059Z,38.60
2023-05-09T12:41:39.070Z,38.67
2023-05-09T12:42:31.982Z,38.66
2023-05-09T12:43:31.026Z,38.60
2023-05-09T12:44:30.896Z,38.62
2023-05-09T12:45:30.834Z,38.63
2023-05-09T12:46:30.800Z,38.61
2023-05-09T12:47:30.758Z,38.60
2023-05-09T12:48:30.683Z,38.61
2023-05-09T12:49:30.645Z,38.60
2023-05-09T12:50:30.609Z,38.62
2023-05-09T12:51:30.543Z,38.56
2023-05-09T12:52:30.496Z,38.53